Time;durP1;ratioP1;P1;durP2;ratioP2;P2;SDS_P1;SDS_P2;PMS_P1;PMS_P2;Temp;Humidity;BMP_temperature;BMP_pressure;BME280_temperature;BME280_humidity;BME280_pressure;Samples;Min_cycle;Max_cycle;Signal;HPM_P1;HPM_P2
2022/04/08 00:02:12;;;;;;;0.10;0.10;;;;;;;8.31;60.13;99855.69;4993029;28;20026;-82
2022/04/08 00:04:38;;;;;;;0.10;0.10;;;;;;;8.49;59.79;99862.28;4981321;28;20081;-82
2022/04/08 00:07:04;;;;;;;0.10;0.10;;;;;;;8.37;58.66;99869.59;4992619;28;20026;-82
2022/04/08 00:09:30;;;;;;;0.95;0.95;;;;;;;8.46;58.68;99879.06;4978022;28;20042;-82
2022/04/08 00:11:57;;;;;;;0.10;0.10;;;;;;;8.46;58.31;99857.03;4980664;28;20023;-82
2022/04/08 00:14:24;;;;;;;0.00;0.00;;;;;;;8.47;58.84;99874.66;4981179;28;20033;-82
2022/04/08 00:16:50;;;;;;;0.10;0.10;;;;;;;8.47;57.77;99877.28;4987664;28;20066;-82
2022/04/08 00:19:16;;;;;;;0.10;0.10;;;;;;;8.41;58.89;99886.19;4981737;28;20035;-82
2022/04/08 00:21:42;;;;;;;0.05;0.05;;;;;;;8.35;57.35;99902.19;4988203;28;20031;-82
2022/04/08 00:24:09;;;;;;;0.05;0.05;;;;;;;8.46;58.05;99883.44;4991043;28;20043;-82
2022/04/08 00:26:35;;;;;;;0.10;0.10;;;;;;;8.47;57.51;99874.66;4988451;28;20034;-82
2022/04/08 00:29:01;;;;;;;0.10;0.10;;;;;;;8.43;57.14;99893.16;4982366;28;20109;-82
2022/04/08 00:31:27;;;;;;;0.10;0.10;;;;;;;8.29;58.68;99903.22;4988480;28;20075;-82
2022/04/08 00:33:54;;;;;;;0.30;0.30;;;;;;;8.30;59.38;99910.25;4990628;28;20581;-81
2022/04/08 00:36:20;;;;;;;0.10;0.10;;;;;;;8.16;59.49;99896.53;5001526;28;20030;-82
2022/04/08 00:38:46;;;;;;;0.10;0.10;;;;;;;7.98;60.13;99903.13;4997929;28;20085;-82
2022/04/08 00:41:14;;;;;;;0.10;0.10;;;;;;;7.94;59.70;99895.28;4994402;28;20074;-82
2022/04/08 00:43:40;;;;;;;0.10;0.10;;;;;;;7.85;60.19;99905.19;5006471;28;20037;-82
2022/04/08 00:46:09;;;;;;;0.10;0.10;;;;;;;7.71;60.21;99906.41;4997226;28;20045;-82
2022/04/08 00:48:36;;;;;;;0.10;0.10;;;;;;;7.73;60.25;99907.22;4992813;28;20054;-82
2022/04/08 00:51:05;;;;;;;0.10;0.10;;;;;;;7.64;60.47;99919.72;4993051;28;20037;-82
2022/04/08 00:53:34;;;;;;;0.10;0.10;;;;;;;7.65;60.81;99922.34;4993521;28;20056;-82
2022/04/08 00:56:01;;;;;;;0.75;0.75;;;;;;;7.75;59.95;99923.00;4989415;28;20161;-82
2022/04/08 00:58:29;;;;;;;0.10;0.10;;;;;;;7.66;59.90;99945.16;4989339;28;20049;-82
2022/04/08 01:01:01;;;;;;;0.10;0.10;;;;;;;7.71;59.70;99942.44;4986985;28;20061;-81
2022/04/08 01:03:47;;;;;;;0.10;0.10;;;;;;;7.75;59.53;99937.06;4984787;28;20043;-82
2022/04/08 01:06:48;;;;;;;0.10;0.10;;;;;;;7.80;58.68;99941.34;4992723;28;20026;-82
2022/04/08 01:09:35;;;;;;;0.10;0.10;;;;;;;7.80;59.06;99952.78;4990837;28;20047;-83
2022/04/08 01:12:02;;;;;;;0.10;0.10;;;;;;;7.81;58.63;99962.41;4983604;28;20028;-82
2022/04/08 01:14:28;;;;;;;0.10;0.10;;;;;;;7.83;58.29;99950.06;4986373;28;20053;-81
2022/04/08 01:16:54;;;;;;;0.10;0.10;;;;;;;7.81;58.08;99945.72;4991678;28;20065;-82
2022/04/08 01:19:20;;;;;;;0.10;0.10;;;;;;;7.71;58.50;99952.97;4991442;28;20081;-82
2022/04/08 01:21:46;;;;;;;0.05;0.05;;;;;;;7.73;58.32;99951.19;4988251;28;20494;-82
2022/04/08 01:24:15;;;;;;;0.10;0.10;;;;;;;7.75;58.03;99954.63;4989684;28;20042;-82
2022/04/08 01:26:41;;;;;;;0.10;0.10;;;;;;;7.81;57.83;99940.44;4982533;28;20031;-82
2022/04/08 01:29:08;;;;;;;0.10;0.10;;;;;;;7.77;58.41;99937.00;4981397;28;20035;-82
2022/04/08 01:31:34;;;;;;;0.10;0.10;;;;;;;7.72;57.72;99947.66;4976448;28;20077;-82
2022/04/08 01:34:00;;;;;;;0.10;0.10;;;;;;;7.73;58.66;99951.19;4991162;28;20031;-82
2022/04/08 01:36:27;;;;;;;0.10;0.10;;;;;;;7.75;58.54;99952.88;4982891;28;20034;-82
2022/04/08 01:38:54;;;;;;;0.10;0.10;;;;;;;7.74;58.06;99956.41;4981472;28;20499;-82
2022/04/08 01:41:20;;;;;;;0.10;0.10;;;;;;;7.77;58.39;99958.97;4989633;28;20477;-82
2022/04/08 01:43:46;;;;;;;0.08;0.08;;;;;;;7.81;58.30;99964.19;4988377;28;20023;-82
2022/04/08 01:46:12;;;;;;;0.10;0.10;;;;;;;7.74;58.77;99958.19;4980680;28;20117;-82
2022/04/08 01:48:38;;;;;;;0.10;0.10;;;;;;;7.74;58.99;99972.22;4979958;28;20043;-82
2022/04/08 01:51:05;;;;;;;0.10;0.10;;;;;;;7.80;58.70;99965.09;4986758;28;20053;-82
2022/04/08 01:53:31;;;;;;;0.10;0.10;;;;;;;7.84;59.51;99970.25;4989757;28;20391;-82
2022/04/08 01:55:57;;;;;;;0.10;0.10;;;;;;;7.89;59.29;99980.72;4979665;28;20130;-82
2022/04/08 01:58:23;;;;;;;0.10;0.10;;;;;;;7.84;60.26;99979.94;4979373;28;20033;-82
2022/04/08 02:00:49;;;;;;;0.10;0.10;;;;;;;7.81;60.54;99980.00;4983370;28;20433;-82
2022/04/08 02:03:19;;;;;;;0.00;0.00;;;;;;;7.77;61.04;99987.97;4988432;28;20034;-82
2022/04/08 02:05:46;;;;;;;0.00;0.00;;;;;;;7.78;60.91;99992.34;4979022;28;20038;-82
2022/04/08 02:08:12;;;;;;;0.10;0.10;;;;;;;7.80;61.39;99994.09;4980370;28;20071;-82
2022/04/08 02:10:39;;;;;;;0.05;0.05;;;;;;;7.82;61.78;99992.31;4982121;28;20038;-82
2022/04/08 02:13:05;;;;;;;0.00;0.00;;;;;;;7.83;61.51;99988.75;4992692;28;20046;-82
2022/04/08 02:15:33;;;;;;;0.10;0.10;;;;;;;7.80;61.89;99988.81;5001157;28;20102;-83
2022/04/08 02:18:01;;;;;;;0.10;0.10;;;;;;;7.75;61.40;99986.28;5007007;28;20264;-83
2022/04/08 02:20:30;;;;;;;0.10;0.10;;;;;;;7.72;61.44;99981.09;4995556;28;20034;-83
2022/04/08 02:22:57;;;;;;;0.10;0.10;;;;;;;7.66;61.45;99986.50;4996790;28;20030;-83
2022/04/08 02:25:24;;;;;;;0.10;0.10;;;;;;;7.57;61.55;99987.56;5001384;28;20033;-83
2022/04/08 02:27:50;;;;;;;0.10;0.10;;;;;;;7.55;61.12;99978.81;4992733;28;20057;-81
2022/04/08 02:30:17;;;;;;;0.08;0.08;;;;;;;7.49;61.76;99977.19;4988916;28;20398;-83
2022/04/08 02:32:43;;;;;;;0.10;0.10;;;;;;;7.38;61.90;99976.53;4993981;28;20101;-83
2022/04/08 02:35:10;;;;;;;0.10;0.10;;;;;;;7.35;62.04;99971.31;4995288;28;20490;-83
2022/04/08 02:37:36;;;;;;;0.13;0.13;;;;;;;7.30;62.52;99971.41;4987860;28;20037;-83
2022/04/08 02:40:03;;;;;;;0.00;0.00;;;;;;;7.33;62.05;99962.56;5002569;28;20054;-80
2022/04/08 02:42:31;;;;;;;0.10;0.10;;;;;;;7.26;62.09;99977.66;4992828;28;20056;-83
2022/04/08 02:44:58;;;;;;;0.05;0.05;;;;;;;7.33;61.77;99978.38;4996972;28;20046;-83
2022/04/08 02:47:24;;;;;;;0.10;0.10;;;;;;;7.35;61.14;99976.59;4994584;28;20108;-83
2022/04/08 02:49:50;;;;;;;0.10;0.10;;;;;;;7.27;61.25;99974.13;4988762;28;20039;-83
2022/04/08 02:52:17;;;;;;;0.08;0.08;;;;;;;7.33;61.13;99974.00;4994638;28;20041;-83
2022/04/08 02:54:43;;;;;;;0.10;0.10;;;;;;;7.34;60.90;99970.47;4986518;28;20027;-83
2022/04/08 02:57:09;;;;;;;0.10;0.10;;;;;;;7.34;60.33;99975.75;4979875;28;20031;-82
2022/04/08 02:59:35;;;;;;;0.10;0.10;;;;;;;7.34;60.80;99981.00;4989771;28;20033;-83
2022/04/08 03:02:01;;;;;;;0.10;0.10;;;;;;;7.36;60.22;99983.59;4991814;28;20573;-83
2022/04/08 03:04:27;;;;;;;0.10;0.10;;;;;;;7.39;60.08;99987.03;4985849;28;20050;-83
2022/04/08 03:06:55;;;;;;;0.40;0.40;;;;;;;7.39;60.23;99989.69;4985863;28;20222;-83
2022/04/08 03:09:21;;;;;;;0.20;0.20;;;;;;;7.37;60.01;99995.88;4986302;28;20038;-83
2022/04/08 03:11:48;;;;;;;0.63;0.55;;;;;;;7.34;60.26;99993.31;4981842;28;20030;-83
2022/04/08 03:14:14;;;;;;;0.10;0.10;;;;;;;7.29;60.34;99998.69;4986681;28;20466;-83
2022/04/08 03:16:40;;;;;;;0.10;0.10;;;;;;;7.27;60.97;100000.47;4985747;28;20035;-82
2022/04/08 03:19:06;;;;;;;0.10;0.10;;;;;;;7.25;60.92;100007.53;4988457;28;20117;-82
2022/04/08 03:21:32;;;;;;;0.10;0.10;;;;;;;7.25;60.68;100012.78;4992815;28;20027;-83
2022/04/08 03:24:03;;;;;;;0.50;0.50;;;;;;;7.16;61.11;100023.53;4988790;28;20030;-83
2022/04/08 03:26:29;;;;;;;0.10;0.10;;;;;;;7.05;61.28;100027.25;4988103;28;20438;-83
2022/04/08 03:28:55;;;;;;;0.10;0.10;;;;;;;7.11;61.26;100016.56;4989983;28;20034;-82
2022/04/08 03:31:22;;;;;;;0.10;0.10;;;;;;;7.02;61.16;100029.06;4987108;28;20082;-82
2022/04/08 03:33:48;;;;;;;0.10;0.10;;;;;;;7.03;61.24;100029.03;4981683;28;20031;-83
2022/04/08 03:36:14;;;;;;;0.10;0.10;;;;;;;7.02;61.18;100027.28;4984440;28;20066;-82
2022/04/08 03:38:40;;;;;;;0.10;0.10;;;;;;;7.04;61.40;100028.13;4988894;28;20041;-82
2022/04/08 03:41:06;;;;;;;0.10;0.10;;;;;;;7.00;61.56;100029.06;4991113;28;20117;-83
2022/04/08 03:43:34;;;;;;;0.10;0.10;;;;;;;6.97;61.28;100027.34;4984776;28;20034;-83
2022/04/08 03:46:00;;;;;;;0.10;0.10;;;;;;;6.96;61.44;100028.25;4985008;28;20027;-82
2022/04/08 03:48:26;;;;;;;0.10;0.10;;;;;;;6.99;61.37;100016.81;4977377;28;20039;-83
2022/04/08 03:50:52;;;;;;;0.10;0.10;;;;;;;6.96;61.59;100016.84;4981866;28;20109;-83
2022/04/08 03:53:19;;;;;;;0.17;0.17;;;;;;;6.99;61.62;100014.19;4992522;28;20129;-82
2022/04/08 03:55:46;;;;;;;0.05;0.05;;;;;;;7.02;61.35;100013.25;4993754;28;20034;-82
2022/04/08 03:58:12;;;;;;;0.63;0.63;;;;;;;7.02;61.23;100015.88;4992266;28;20057;-83
2022/04/08 04:00:39;;;;;;;0.10;0.10;;;;;;;7.00;61.59;100013.25;4995916;28;20034;-82
2022/04/08 04:03:07;;;;;;;0.10;0.10;;;;;;;7.01;61.27;100008.88;4997535;28;20026;-82
2022/04/08 04:05:35;;;;;;;0.10;0.10;;;;;;;7.04;61.34;100009.69;4992310;28;20053;-83
2022/04/08 04:08:01;;;;;;;0.10;0.10;;;;;;;7.04;61.37;99999.16;4990668;28;20425;-83
2022/04/08 04:10:28;;;;;;;0.10;0.10;;;;;;;6.96;61.61;100011.59;4990641;28;20483;-83
2022/04/08 04:12:54;;;;;;;0.17;0.17;;;;;;;6.99;61.49;100011.56;4985170;28;20030;-83
2022/04/08 04:15:20;;;;;;;0.10;0.10;;;;;;;6.98;61.81;100015.06;4990376;28;20520;-83
2022/04/08 04:17:46;;;;;;;0.10;0.10;;;;;;;7.00;61.58;100010.63;4986284;28;20088;-83
2022/04/08 04:20:12;;;;;;;0.10;0.10;;;;;;;6.95;61.98;100007.22;4988807;28;20038;-82
2022/04/08 04:22:38;;;;;;;0.10;0.10;;;;;;;6.97;61.83;100003.66;4983627;28;20498;-83
2022/04/08 04:25:05;;;;;;;0.10;0.10;;;;;;;6.93;61.99;100006.41;4982293;28;20058;-83
2022/04/08 04:27:31;;;;;;;0.20;0.20;;;;;;;6.95;62.03;100009.84;4991943;28;20037;-83
2022/04/08 04:29:57;;;;;;;0.10;0.10;;;;;;;6.85;62.31;100008.28;4988363;28;20042;-82
2022/04/08 04:32:23;;;;;;;0.10;0.10;;;;;;;6.87;62.41;100012.63;4982652;28;20081;-82
2022/04/08 04:34:49;;;;;;;0.10;0.10;;;;;;;6.89;62.65;100009.97;4980592;28;20065;-83
2022/04/08 04:37:16;;;;;;;0.10;0.10;;;;;;;6.89;62.25;100016.13;4982977;28;20047;-83
2022/04/08 04:39:42;;;;;;;0.10;0.10;;;;;;;6.89;62.70;100016.13;4987874;28;20037;-83
2022/04/08 04:42:08;;;;;;;0.10;0.10;;;;;;;6.86;62.76;100018.78;4987583;28;20118;-83
2022/04/08 04:44:34;;;;;;;0.10;0.10;;;;;;;6.86;62.71;100016.16;4984475;28;20057;-83
2022/04/08 04:47:01;;;;;;;0.10;0.10;;;;;;;6.89;62.23;100031.03;4978160;28;20045;-83
2022/04/08 04:49:27;;;;;;;0.10;0.10;;;;;;;6.90;62.03;100019.59;4990773;28;20031;-83
2022/04/08 04:51:53;;;;;;;0.10;0.10;;;;;;;6.83;62.53;100025.88;4987595;28;20494;-83
2022/04/08 04:54:19;;;;;;;0.10;0.10;;;;;;;6.80;62.49;100021.53;4984481;28;20456;-83
2022/04/08 04:56:45;;;;;;;0.50;0.50;;;;;;;6.75;62.64;100015.47;4985584;28;20047;-83
2022/04/08 04:59:12;;;;;;;0.10;0.10;;;;;;;6.80;62.13;100011.00;4986191;28;20418;-83
2022/04/08 05:01:38;;;;;;;0.10;0.10;;;;;;;6.84;62.41;100017.09;4990331;28;20026;-83
2022/04/08 05:04:04;;;;;;;0.00;0.00;;;;;;;6.84;62.24;100019.72;4999579;28;20070;-83
2022/04/08 05:06:31;;;;;;;0.10;0.10;;;;;;;6.84;62.26;100009.19;4993403;28;20031;-83
2022/04/08 05:08:57;;;;;;;1.95;1.75;;;;;;;6.82;62.17;100013.59;4983796;28;20042;-82
2022/04/08 05:11:23;;;;;;;0.10;0.10;;;;;;;6.80;62.39;100011.88;4990277;28;20031;-82
2022/04/08 05:13:49;;;;;;;0.10;0.10;;;;;;;6.83;62.42;100010.97;4982315;28;20033;-82
2022/04/08 05:16:15;;;;;;;0.10;0.10;;;;;;;6.85;62.15;100010.94;4988762;28;20121;-82
2022/04/08 05:18:41;;;;;;;0.10;0.10;;;;;;;6.92;62.45;100004.66;4983566;28;20049;-83
2022/04/08 05:21:07;;;;;;;0.10;0.10;;;;;;;6.95;62.28;100009.84;4985530;28;20038;-83
2022/04/08 05:23:33;;;;;;;0.10;0.10;;;;;;;6.96;62.17;100012.44;4988928;28;20041;-83
2022/04/08 05:26:01;;;;;;;0.10;0.10;;;;;;;7.00;62.04;100008.00;4985420;28;20031;-83
2022/04/08 05:28:27;;;;;;;0.10;0.10;;;;;;;7.01;62.24;100001.84;4987575;28;20033;-83
2022/04/08 05:30:53;;;;;;;0.10;0.10;;;;;;;7.04;62.19;99993.88;4981804;28;20018;-84
2022/04/08 05:33:19;;;;;;;0.10;0.10;;;;;;;7.03;62.16;99992.16;4987746;28;20031;-83
2022/04/08 05:35:45;;;;;;;0.10;0.10;;;;;;;7.03;61.75;99997.41;4997769;28;20057;-83
2022/04/08 05:38:12;;;;;;;0.10;0.10;;;;;;;7.05;61.98;99989.47;4996184;28;20128;-83
2022/04/08 05:40:38;;;;;;;0.10;0.10;;;;;;;7.05;61.84;99995.63;4989354;28;20088;-82
2022/04/08 05:43:04;;;;;;;0.10;0.10;;;;;;;7.04;61.97;99991.25;4996161;28;20053;-82
2022/04/08 05:45:30;;;;;;;0.10;0.10;;;;;;;7.11;61.64;99990.22;4998425;28;20505;-83
2022/04/08 05:48:01;;;;;;;0.10;0.10;;;;;;;7.22;62.26;99987.38;4990416;28;20102;-82
2022/04/08 05:50:27;;;;;;;0.10;0.10;;;;;;;7.33;62.14;99984.53;4993269;28;20018;-83
2022/04/08 05:52:53;;;;;;;0.10;0.10;;;;;;;7.35;61.82;99974.84;5001324;28;20033;-83
2022/04/08 05:57:56;;;;;;;0.10;0.10;;;;;;;7.39;61.77;99972.97;5006363;28;20058;-77
2022/04/08 06:00:22;;;;;;;0.10;0.10;;;;;;;7.40;62.32;99980.88;5011277;28;20108;-76
2022/04/08 06:02:49;;;;;;;0.10;0.10;;;;;;;7.42;62.13;99979.06;4987608;28;20038;-76
2022/04/08 06:05:18;;;;;;;0.10;0.10;;;;;;;7.44;62.48;99974.63;4993220;28;20169;-77
2022/04/08 06:10:24;;;;;;;0.10;0.10;;;;;;;7.47;62.41;99989.50;5087404;27;20207;-77
2022/04/08 06:12:51;;;;;;;0.10;0.10;;;;;;;7.49;62.49;99978.94;5090051;28;20025;-78
2022/04/08 06:15:18;;;;;;;0.10;0.10;;;;;;;7.54;62.75;99987.59;5095068;28;20020;-77
2022/04/08 06:17:45;;;;;;;0.10;0.10;;;;;;;7.56;62.21;99991.97;5094572;28;20501;-77
2022/04/08 06:20:13;;;;;;;0.05;0.05;;;;;;;7.58;62.41;99984.03;5087198;28;20024;-77
2022/04/08 06:22:39;;;;;;;0.10;0.10;;;;;;;7.63;62.10;99991.81;5093995;28;20059;-78
2022/04/08 06:25:08;;;;;;;0.10;0.10;;;;;;;7.71;61.96;99982.88;5092683;28;20043;-77
2022/04/08 06:27:34;;;;;;;0.05;0.05;;;;;;;7.77;61.91;99987.13;5092382;28;20114;-77
2022/04/08 06:30:00;;;;;;;0.10;0.10;;;;;;;7.85;62.10;99974.63;5089869;28;20024;-77
2022/04/08 06:32:26;;;;;;;0.10;0.10;;;;;;;7.87;62.33;99987.78;5079457;28;20032;-77
2022/04/08 06:34:52;;;;;;;0.10;0.10;;;;;;;7.91;61.90;99977.13;5082232;28;20029;-77
2022/04/08 06:37:18;;;;;;;0.05;0.05;;;;;;;7.98;62.60;99974.34;5080066;28;20032;-77
2022/04/08 06:39:46;;;;;;;0.10;0.10;;;;;;;8.02;61.94;99968.94;5090309;28;20103;-77
2022/04/08 06:42:13;;;;;;;0.10;0.10;;;;;;;8.08;61.93;99982.00;5087571;28;20044;-78
2022/04/08 06:44:39;;;;;;;0.05;0.05;;;;;;;8.19;61.84;99981.75;5090513;28;20363;-78
2022/04/08 06:47:05;;;;;;;0.10;0.10;;;;;;;8.19;61.61;99976.47;5092252;28;20036;-77
2022/04/08 06:49:31;;;;;;;0.00;0.00;;;;;;;8.28;61.52;99982.44;5085075;28;20024;-77
2022/04/08 06:51:58;;;;;;;0.10;0.10;;;;;;;8.32;61.89;99977.03;5072596;28;20033;-76
2022/04/08 06:54:25;;;;;;;0.10;0.10;;;;;;;8.36;61.28;99978.72;5079502;28;20123;-77
2022/04/08 06:56:52;;;;;;;0.25;0.25;;;;;;;8.38;61.59;99981.31;5091582;28;20039;-77
2022/04/08 06:59:18;;;;;;;0.00;0.00;;;;;;;8.43;61.01;99980.28;5092004;28;20504;-77
2022/04/08 07:01:44;;;;;;;1.50;1.20;;;;;;;8.49;61.16;99974.00;5085173;28;20095;-77
2022/04/08 07:04:10;;;;;;;0.15;0.15;;;;;;;8.58;60.67;99978.19;5094805;28;20033;-77
2022/04/08 07:06:36;;;;;;;0.10;0.10;;;;;;;8.66;60.58;99976.22;5095149;28;20039;-77
2022/04/08 07:09:02;;;;;;;0.00;0.00;;;;;;;8.68;60.49;99982.31;5094399;28;20379;-77
2022/04/08 07:11:28;;;;;;;0.10;0.10;;;;;;;8.77;60.79;99988.28;5092136;28;20398;-77
2022/04/08 07:13:54;;;;;;;0.10;0.10;;;;;;;8.72;59.64;99978.72;5093750;28;20040;-77
2022/04/08 07:16:21;;;;;;;0.10;0.10;;;;;;;8.85;60.01;99981.03;5102539;28;20028;-76
2022/04/08 07:18:47;;;;;;;0.10;0.10;;;;;;;8.95;59.42;99981.63;5102711;28;20034;-77
2022/04/08 07:21:13;;;;;;;0.10;0.10;;;;;;;8.95;59.65;99981.63;5081612;28;20037;-77
2022/04/08 07:23:39;;;;;;;0.10;0.10;;;;;;;9.10;60.17;99969.75;5079814;28;20032;-77
2022/04/08 07:26:05;;;;;;;0.00;0.00;;;;;;;9.14;59.38;99972.28;5081099;28;20024;-77
2022/04/08 07:28:32;;;;;;;0.10;0.10;;;;;;;9.12;58.33;99973.25;5082109;28;20029;-77
2022/04/08 07:30:58;;;;;;;0.10;0.10;;;;;;;9.32;58.79;99973.56;5080840;28;20231;-78
2022/04/08 07:33:24;;;;;;;0.00;0.00;;;;;;;9.43;57.67;99964.44;5079600;28;20036;-77
2022/04/08 07:35:50;;;;;;;16.40;1.08;;;;;;;9.55;57.35;99967.56;5079236;28;20033;-77
2022/04/08 07:38:16;;;;;;;0.10;0.10;;;;;;;9.55;57.54;99956.16;5076228;28;20387;-75
2022/04/08 07:40:43;;;;;;;0.00;0.00;;;;;;;9.75;57.65;99957.31;5073097;28;20108;-76
2022/04/08 07:43:10;;;;;;;0.00;0.00;;;;;;;9.75;56.94;99962.63;5068602;28;20039;-77
2022/04/08 07:45:36;;;;;;;0.10;0.10;;;;;;;9.83;56.86;99961.47;5072993;28;20047;-77
2022/04/08 07:48:02;;;;;;;0.00;0.00;;;;;;;9.89;55.80;99955.09;5076595;28;20250;-78
2022/04/08 07:50:29;;;;;;;0.28;0.28;;;;;;;10.06;56.28;99954.56;5074163;28;20397;-77
2022/04/08 07:52:55;;;;;;;0.10;0.10;;;;;;;10.01;55.00;99954.72;5073282;28;20103;-77
2022/04/08 07:55:24;;;;;;;0.10;0.10;;;;;;;10.11;54.71;99959.72;5079330;28;20070;-77
2022/04/08 07:57:51;;;;;;;0.10;0.10;;;;;;;10.18;54.85;99955.94;5078251;28;20021;-77
2022/04/08 08:00:20;;;;;;;0.13;0.13;;;;;;;10.20;54.52;99964.69;5076979;28;20494;-77
2022/04/08 08:02:48;;;;;;;0.10;0.10;;;;;;;10.34;54.44;99951.88;5074213;28;20051;-77
2022/04/08 08:05:14;;;;;;;0.00;0.00;;;;;;;10.37;54.61;99953.59;5073429;28;20028;-76
2022/04/08 08:10:25;;;;;;;0.10;0.10;;;;;;;10.40;51.95;99949.97;5096244;27;20761;-76
2022/04/08 08:12:53;;;;;;;0.10;0.10;;;;;;;10.46;51.96;99955.06;5078569;28;20032;-76
2022/04/08 08:15:20;;;;;;;0.25;0.25;;;;;;;10.48;52.02;99946.16;5087932;28;20052;-76
2022/04/08 08:17:47;;;;;;;0.10;0.10;;;;;;;10.55;52.70;99954.75;5087970;28;20032;-76
2022/04/08 08:20:15;;;;;;;0.10;0.10;;;;;;;10.55;51.12;99945.94;5087523;28;20047;-75
2022/04/08 08:22:42;;;;;;;1.38;1.10;;;;;;;10.63;51.53;99947.41;5088380;28;20397;-75
2022/04/08 08:25:09;;;;;;;0.10;0.10;;;;;;;10.67;52.34;99941.06;5091069;28;20028;-77
2022/04/08 08:27:37;;;;;;;0.10;0.10;;;;;;;10.67;52.04;99925.19;5087620;28;20024;-77
2022/04/08 08:30:05;;;;;;;0.10;0.10;;;;;;;10.65;51.04;99926.16;5087852;28;20443;-75
2022/04/08 08:32:32;;;;;;;0.10;0.10;;;;;;;10.60;50.83;99923.66;5087153;28;20090;-76
2022/04/08 08:34:58;;;;;;;0.00;0.00;;;;;;;10.63;51.59;99926.22;5088995;28;20085;-76
2022/04/08 08:37:24;;;;;;;0.10;0.10;;;;;;;10.64;50.90;99917.34;5104053;28;20083;-77
2022/04/08 08:39:55;;;;;;;0.10;0.10;;;;;;;10.68;50.58;99916.31;5111965;28;20024;-76
2022/04/08 08:42:22;;;;;;;0.10;0.10;;;;;;;10.71;49.93;99917.16;5110964;28;20024;-77
2022/04/08 08:44:48;;;;;;;0.45;0.45;;;;;;;10.76;49.89;99921.34;5104608;28;20027;-77
2022/04/08 08:47:16;;;;;;;0.10;0.10;;;;;;;10.75;48.97;99924.91;5092823;28;20039;-77
2022/04/08 08:49:48;;;;;;;0.10;0.10;;;;;;;10.89;49.92;99926.22;5087898;28;20060;-77
2022/04/08 08:52:16;;;;;;;0.10;0.10;;;;;;;10.89;49.17;99921.78;5100820;28;20044;-77
2022/04/08 08:54:42;;;;;;;0.00;0.00;;;;;;;10.96;48.78;99920.63;5088769;28;20507;-77
2022/04/08 08:57:10;;;;;;;0.10;0.10;;;;;;;11.08;47.92;99910.47;5090177;28;20419;-76
2022/04/08 08:59:37;;;;;;;0.80;0.80;;;;;;;11.17;48.85;99904.84;5086349;28;20186;-77
2022/04/08 09:02:03;;;;;;;0.00;0.00;;;;;;;11.24;48.56;99905.47;5086842;28;20028;-77
2022/04/08 09:04:30;;;;;;;0.10;0.10;;;;;;;11.32;48.86;99904.25;5087840;28;20028;-77
2022/04/08 09:06:57;;;;;;;0.10;0.10;;;;;;;11.39;48.68;99893.41;5087732;28;20727;-75
2022/04/08 09:09:31;;;;;;;0.10;0.10;;;;;;;11.54;49.62;99898.16;5092937;28;20038;-76
2022/04/08 09:12:10;;;;;;;0.15;0.15;;;;;;;11.70;48.62;99893.09;5079739;28;20064;-77
2022/04/08 09:14:36;;;;;;;0.10;0.10;;;;;;;11.58;46.57;99899.75;5087724;28;20103;-77
2022/04/08 09:17:02;;;;;;;0.10;0.10;;;;;;;11.68;47.47;99896.75;5099850;28;20481;-77
2022/04/08 09:19:33;;;;;;;0.10;0.10;;;;;;;11.68;47.64;99915.31;5088336;28;20089;-77
2022/04/08 09:21:59;;;;;;;0.10;0.10;;;;;;;11.65;46.16;99906.53;5100644;28;20449;-77
2022/04/08 09:24:27;;;;;;;0.10;0.10;;;;;;;11.59;44.83;99890.88;5097686;28;20489;-77
2022/04/08 09:26:55;;;;;;;0.10;0.10;;;;;;;11.60;45.62;99902.31;5094230;28;20512;-77
2022/04/08 09:29:23;;;;;;;0.43;0.43;;;;;;;11.68;46.24;99915.31;5090868;28;20047;-77
2022/04/08 09:31:51;;;;;;;0.00;0.00;;;;;;;11.72;46.53;99901.00;5068900;28;20029;-76
2022/04/08 09:34:19;;;;;;;0.10;0.10;;;;;;;11.63;45.21;99896.91;5074018;28;20111;-77
2022/04/08 09:36:46;;;;;;;0.00;0.00;;;;;;;11.56;45.37;99896.28;5073590;28;20142;-77
2022/04/08 09:39:13;;;;;;;0.00;0.00;;;;;;;11.52;46.52;99897.34;5073768;28;20578;-77
2022/04/08 09:41:42;;;;;;;0.00;0.00;;;;;;;11.49;46.44;99890.34;5079507;28;20496;-74
2022/04/08 09:44:10;;;;;;;0.00;0.00;;;;;;;11.62;47.35;99882.78;5081196;28;20104;-77
2022/04/08 09:46:36;;;;;;;0.10;0.10;;;;;;;11.61;46.12;99894.34;5072352;28;20509;-77
2022/04/08 09:49:05;;;;;;;0.10;0.10;;;;;;;11.62;46.12;99890.72;5073565;28;20047;-77
2022/04/08 09:51:37;;;;;;;0.10;0.10;;;;;;;11.65;46.76;99887.09;5073370;28;20024;-77
2022/04/08 09:54:06;;;;;;;0.10;0.10;;;;;;;11.61;45.37;99889.03;5077281;28;20024;-77
2022/04/08 09:56:35;;;;;;;0.43;0.43;;;;;;;11.70;46.37;99897.53;5078056;28;20033;-75
2022/04/08 10:01:37;;;;;;;0.70;0.70;;;;;;;11.73;45.82;99898.28;5069694;28;20421;-76
2022/04/08 10:04:07;;;;;;;0.00;0.00;;;;;;;11.72;46.50;99891.22;5051660;28;20506;-77
2022/04/08 10:06:34;;;;;;;0.32;0.32;;;;;;;11.83;46.30;99893.47;5050146;28;20029;-78
2022/04/08 10:09:01;;;;;;;0.10;0.10;;;;;;;11.91;45.52;99899.34;5048368;28;20406;-76
2022/04/08 10:11:54;;;;;;;0.10;0.10;;;;;;;11.98;44.32;99892.84;5047359;28;20120;-76
2022/04/08 10:14:40;;;;;;;;;;;;;;;12.17;44.79;99892.09;5048123;28;20021;-76
2022/04/08 10:17:09;;;;;;;0.40;0.40;;;;;;;12.02;44.77;99898.06;5041251;28;19913;-76
2022/04/08 10:19:35;;;;;;;0.10;0.10;;;;;;;12.07;45.33;99901.38;5033848;28;20022;-77
2022/04/08 10:22:02;;;;;;;0.10;0.10;;;;;;;12.20;45.52;99891.97;5048096;28;20072;-77
2022/04/08 10:24:30;;;;;;;0.10;0.10;;;;;;;12.26;45.53;99891.72;5050685;28;20858;-76
2022/04/08 10:27:09;;;;;;;0.00;0.00;;;;;;;12.36;45.31;99893.97;5049275;28;20033;-75
2022/04/08 10:29:36;;;;;;;0.00;0.00;;;;;;;12.39;44.89;99880.56;5048860;28;20025;-77
2022/04/08 10:32:12;;;;;;;0.10;0.10;;;;;;;12.52;43.95;99886.22;5046395;28;20159;-78
2022/04/08 10:34:38;;;;;;;0.73;0.63;;;;;;;12.53;45.29;99883.47;5051769;28;20033;-77
2022/04/08 10:37:15;;;;;;;0.10;0.10;;;;;;;12.59;44.32;99883.22;5059489;28;20033;-78
2022/04/08 10:39:53;;;;;;;0.00;0.00;;;;;;;12.45;42.97;99882.97;5056635;28;20027;-77
2022/04/08 10:42:22;;;;;;;0.10;0.10;;;;;;;12.41;44.03;99910.56;5054161;28;20029;-76
2022/04/08 10:44:48;;;;;;;0.30;0.30;;;;;;;12.27;42.99;99901.44;5057614;28;20064;-77
2022/04/08 10:47:17;;;;;;;0.10;0.10;;;;;;;12.32;44.49;99897.69;5057147;28;20028;-77
2022/04/08 10:50:04;;;;;;;0.10;0.10;;;;;;;12.45;44.14;99906.88;5061976;28;20083;-77
2022/04/08 10:52:39;;;;;;;0.05;0.05;;;;;;;12.32;43.98;99910.97;5054601;28;20482;-78
2022/04/08 10:57:43;;;;;;;0.10;0.10;;;;;;;12.38;45.44;99900.94;5078891;27;1887693;-77
2022/04/08 11:00:15;;;;;;;0.10;0.10;;;;;;;12.34;44.91;99898.50;5125755;28;20024;-76
2022/04/08 11:02:43;;;;;;;0.10;0.10;;;;;;;12.30;45.21;99873.88;5105302;28;20082;-78
2022/04/08 11:05:11;;;;;;;0.10;0.10;;;;;;;12.24;45.41;99892.72;5091988;28;20552;-78
2022/04/08 11:07:41;;;;;;;0.10;0.10;;;;;;;12.18;45.07;99888.50;5090195;28;20024;-76
2022/04/08 11:10:11;;;;;;;0.10;0.10;;;;;;;12.17;46.07;99886.78;5087637;28;20394;-77
2022/04/08 11:12:46;;;;;;;0.10;0.10;;;;;;;12.18;45.88;99887.66;5094587;28;20031;-78
2022/04/08 11:15:15;;;;;;;0.10;0.10;;;;;;;12.21;47.03;99892.84;5105764;28;20524;-78
2022/04/08 11:17:42;;;;;;;0.10;0.10;;;;;;;12.19;46.36;99887.59;5108878;28;20020;-75
2022/04/08 11:20:11;;;;;;;0.10;0.10;;;;;;;12.20;44.78;99891.97;5109968;28;20020;-77
2022/04/08 11:22:43;;;;;;;0.10;0.10;;;;;;;12.35;45.75;99884.28;5104324;28;20031;-77
2022/04/08 11:25:12;;;;;;;0.10;0.10;;;;;;;12.33;45.24;99880.84;5109366;28;20008;-77
2022/04/08 11:27:38;;;;;;;0.08;0.08;;;;;;;12.40;45.52;99875.19;5109686;28;20023;-76
2022/04/08 11:30:08;;;;;;;0.10;0.10;;;;;;;12.44;44.08;99859.97;5107064;28;20040;-78
2022/04/08 11:32:34;;;;;;;0.05;0.05;;;;;;;12.49;45.72;99857.13;5104363;28;20028;-77
2022/04/08 11:35:12;;;;;;;0.10;0.10;;;;;;;12.65;45.33;99865.28;5105692;28;20024;-78
2022/04/08 11:37:38;;;;;;;0.00;0.00;;;;;;;12.62;44.94;99855.63;5103812;28;20025;-77
2022/04/08 11:40:05;;;;;;;0.00;0.00;;;;;;;12.73;45.61;99869.31;5104241;28;20033;-77
2022/04/08 11:42:31;;;;;;;0.00;0.00;;;;;;;12.70;44.60;99868.63;5104009;28;20028;-77
2022/04/08 11:44:59;;;;;;;0.10;0.10;;;;;;;12.77;43.82;99867.38;5092355;28;20169;-77
2022/04/08 11:47:33;;;;;;;0.05;0.05;;;;;;;12.77;42.80;99854.97;5090908;28;20054;-77
2022/04/08 11:50:08;;;;;;;0.08;0.08;;;;;;;12.75;43.30;99848.84;5092666;28;20044;-77
2022/04/08 11:52:36;;;;;;;0.10;0.10;;;;;;;12.71;44.20;99843.75;5090403;28;20450;-77